createdAt,value
2017-09-08T00:00:34.903Z,0
2017-09-08T00:01:45.148Z,0
2017-09-08T00:02:55.390Z,0
2017-09-08T00:04:05.335Z,0
2017-09-08T00:05:15.522Z,0
2017-09-08T00:06:25.768Z,0
2017-09-08T00:07:36.035Z,0
2017-09-08T00:08:46.123Z,0
2017-09-08T00:09:55.742Z,0
2017-09-08T00:11:06.248Z,0
2017-09-08T00:12:16.499Z,0
2017-09-08T00:13:26.435Z,0
2017-09-08T00:14:36.379Z,0
2017-09-08T00:15:46.635Z,0
2017-09-08T00:16:56.820Z,0
2017-09-08T00:18:07.073Z,0
2017-09-08T00:19:17.341Z,0
2017-09-08T00:20:27.592Z,0
2017-09-08T00:21:37.842Z,0
2017-09-08T00:22:48.403Z,0
2017-09-08T00:23:58.669Z,0
2017-09-08T00:25:08.923Z,0
2017-09-08T00:26:19.175Z,0
2017-09-08T00:27:29.210Z,0
2017-09-08T00:28:39.400Z,0
2017-09-08T00:29:49.656Z,0
2017-09-08T00:30:59.907Z,0
2017-09-08T00:32:10.152Z,0
2017-09-08T00:33:20.416Z,0
2017-09-08T00:34:30.909Z,0
2017-09-08T00:35:41.168Z,0
2017-09-08T00:36:51.413Z,0
2017-09-08T00:38:01.659Z,0
2017-09-08T00:39:11.910Z,0
2017-09-08T00:40:21.473Z,0
2017-09-08T00:41:31.723Z,0
2017-09-08T00:42:41.660Z,0
2017-09-08T00:43:51.608Z,0
2017-09-08T00:45:01.854Z,0
2017-09-08T00:46:12.359Z,0
2017-09-08T00:47:22.604Z,0
2017-09-08T00:48:31.905Z,0
2017-09-08T00:49:42.161Z,0
2017-09-08T00:50:52.420Z,0
2017-09-08T00:52:02.609Z,0
2017-09-08T00:53:12.545Z,0
2017-09-08T00:54:22.843Z,0
2017-09-08T00:55:33.090Z,0
2017-09-08T00:56:43.348Z,0
2017-09-08T00:57:53.539Z,0
2017-09-08T00:59:03.484Z,0
2017-09-08T01:00:13.736Z,0
2017-09-08T01:01:24.006Z,0
2017-09-08T01:02:34.261Z,0
2017-09-08T01:03:44.756Z,0
2017-09-08T01:04:54.691Z,0
2017-09-08T01:06:04.968Z,0
2017-09-08T01:07:14.904Z,0
2017-09-08T01:08:25.166Z,0
2017-09-08T01:09:35.668Z,0
2017-09-08T01:10:45.607Z,0
2017-09-08T01:11:55.872Z,0
2017-09-08T01:13:06.111Z,0
2017-09-08T01:14:16.375Z,0
2017-09-08T01:15:26.554Z,0
2017-09-08T01:16:36.487Z,0
2017-09-08T01:17:46.746Z,0
2017-09-08T01:18:56.997Z,0
2017-09-08T01:20:07.254Z,0
2017-09-08T01:21:17.755Z,0
2017-09-08T01:22:28.012Z,0
2017-09-08T01:23:38.266Z,0
2017-09-08T01:24:48.514Z,0
2017-09-08T01:25:58.757Z,0
2017-09-08T01:27:09.259Z,0
2017-09-08T01:28:19.188Z,0
2017-09-08T01:29:29.439Z,0
2017-09-08T01:30:39.370Z,0
2017-09-08T01:31:49.646Z,0
2017-09-08T01:33:00.160Z,0
2017-09-08T01:34:10.425Z,0
2017-09-08T01:35:20.677Z,0
2017-09-08T01:36:30.312Z,0
2017-09-08T01:37:40.561Z,0
2017-09-08T01:38:51.061Z,0
2017-09-08T01:40:00.996Z,0
2017-09-08T01:41:11.252Z,0
2017-09-08T01:42:21.513Z,0
2017-09-08T01:43:31.761Z,0
2017-09-08T01:44:42.256Z,0
2017-09-08T01:45:52.189Z,0
2017-09-08T01:47:02.129Z,0
2017-09-08T01:48:12.390Z,0
2017-09-08T01:49:22.646Z,0
2017-09-08T01:50:33.159Z,0
2017-09-08T01:51:43.402Z,0
2017-09-08T01:52:53.657Z,0
2017-09-08T01:54:03.909Z,0
2017-09-08T01:55:14.149Z,0
2017-09-08T01:56:24.331Z,0
2017-09-08T01:57:34.578Z,0
2017-09-08T01:58:44.513Z,0
2017-09-08T01:59:54.773Z,0
2017-09-08T02:01:05.042Z,0
2017-09-08T02:02:15.548Z,0
2017-09-08T02:03:25.790Z,0
2017-09-08T02:04:35.412Z,0
2017-09-08T02:05:45.669Z,0
2017-09-08T02:06:55.916Z,0
2017-09-08T02:08:06.419Z,0
2017-09-08T02:09:16.667Z,0
2017-09-08T02:10:26.919Z,0
2017-09-08T02:11:36.857Z,0
2017-09-08T02:12:47.119Z,0
2017-09-08T02:13:57.624Z,0
2017-09-08T02:15:07.879Z,0
2017-09-08T02:16:18.137Z,0
2017-09-08T02:17:28.376Z,0
2017-09-08T02:18:38.635Z,0
2017-09-08T02:19:48.827Z,0
2017-09-08T02:20:59.088Z,0
2017-09-08T02:22:09.338Z,0
2017-09-08T02:23:19.587Z,0
2017-09-08T02:24:29.835Z,0
2017-09-08T02:25:40.335Z,0
2017-09-08T02:26:50.584Z,0
2017-09-08T02:28:00.517Z,0
2017-09-08T02:29:10.758Z,0
2017-09-08T02:30:20.692Z,0
2017-09-08T02:31:31.198Z,0
2017-09-08T02:32:41.164Z,0
2017-09-08T02:33:51.423Z,0
2017-09-08T02:35:01.672Z,0
2017-09-08T02:36:11.924Z,0
2017-09-08T02:37:22.117Z,0
2017-09-08T02:38:32.364Z,0
2017-09-08T02:39:42.306Z,0
2017-09-08T02:40:52.228Z,0
2017-09-08T02:42:02.477Z,0
2017-09-08T02:43:12.983Z,0
2017-09-08T02:44:23.245Z,0
2017-09-08T02:45:33.499Z,0
2017-09-08T02:46:43.748Z,0
2017-09-08T02:47:53.689Z,0
2017-09-08T02:49:04.192Z,0
2017-09-08T02:50:14.441Z,0
2017-09-08T02:51:24.693Z,0
2017-09-08T02:52:34.938Z,0
2017-09-08T02:53:44.866Z,0
2017-09-08T02:54:55.390Z,0
2017-09-08T02:56:05.324Z,0
2017-09-08T02:57:15.573Z,0
2017-09-08T02:58:25.823Z,0
2017-09-08T02:59:35.762Z,0
2017-09-08T03:00:45.951Z,0
2017-09-08T03:01:56.213Z,0
2017-09-08T03:03:06.142Z,0
2017-09-08T03:04:16.406Z,0
2017-09-08T03:05:26.349Z,0
2017-09-08T03:06:36.855Z,0
2017-09-08T03:07:46.803Z,0
2017-09-08T03:08:57.057Z,0
2017-09-08T03:10:06.676Z,0
2017-09-08T03:11:16.612Z,0
2017-09-08T03:12:26.806Z,0
2017-09-08T03:13:37.064Z,0
2017-09-08T03:14:47.317Z,0
2017-09-08T03:15:57.565Z,0
2017-09-08T03:17:07.812Z,0
2017-09-08T03:18:18.300Z,0
2017-09-08T03:19:28.559Z,0
2017-09-08T03:20:38.815Z,0
2017-09-08T03:21:49.072Z,0
2017-09-08T03:22:59.322Z,0
2017-09-08T03:24:09.830Z,0
2017-09-08T03:25:20.081Z,0
2017-09-08T03:26:30.005Z,0
2017-09-08T03:27:39.629Z,0
2017-09-08T03:28:49.871Z,0
2017-09-08T03:30:00.054Z,0
2017-09-08T03:31:10.314Z,0
2017-09-08T03:32:19.933Z,0
2017-09-08T03:33:29.870Z,0
2017-09-08T03:34:40.126Z,0
2017-09-08T03:35:50.636Z,0
2017-09-08T03:37:00.888Z,0
2017-09-08T03:38:11.134Z,0
2017-09-08T03:39:21.083Z,0
2017-09-08T03:40:31.021Z,0
2017-09-08T03:41:41.536Z,0
2017-09-08T03:42:51.469Z,0
2017-09-08T03:44:01.708Z,0
2017-09-08T03:45:11.954Z,0
2017-09-08T03:46:22.201Z,0
2017-09-08T03:47:32.400Z,0
2017-09-08T03:48:42.656Z,0
2017-09-08T03:49:52.586Z,0
2017-09-08T03:51:02.836Z,0
2017-09-08T03:52:13.098Z,0
2017-09-08T03:53:23.594Z,0
2017-09-08T03:54:32.942Z,0
2017-09-08T03:55:43.189Z,0
2017-09-08T03:56:53.435Z,0
2017-09-08T03:58:03.065Z,0
2017-09-08T03:59:13.558Z,4
2017-09-08T04:00:23.806Z,4
2017-09-08T04:01:33.742Z,4
2017-09-08T04:02:43.355Z,4
2017-09-08T04:03:53.619Z,8
2017-09-08T04:05:04.164Z,8
2017-09-08T04:06:14.415Z,8
2017-09-08T04:07:24.341Z,12
2017-09-08T04:08:34.271Z,12
2017-09-08T04:09:44.242Z,16
2017-09-08T04:10:54.421Z,12
2017-09-08T04:12:04.366Z,12
2017-09-08T04:13:14.613Z,16
2017-09-08T04:14:24.870Z,20
2017-09-08T04:15:34.807Z,24
2017-09-08T04:16:44.991Z,28
2017-09-08T04:17:55.248Z,32
2017-09-08T04:19:05.488Z,40
2017-09-08T04:20:15.124Z,48
2017-09-08T04:21:25.399Z,60
2017-09-08T04:22:35.905Z,72
2017-09-08T04:23:46.163Z,84
2017-09-08T04:24:56.095Z,92
2017-09-08T04:26:05.721Z,104
2017-09-08T04:27:15.665Z,116
2017-09-08T04:28:25.857Z,136
2017-09-08T04:29:36.109Z,148
2017-09-08T04:30:46.368Z,164
2017-09-08T04:31:56.615Z,180
2017-09-08T04:33:06.865Z,200
2017-09-08T04:34:17.371Z,220
2017-09-08T04:35:27.309Z,236
2017-09-08T04:36:37.571Z,248
2017-09-08T04:37:47.823Z,256
2017-09-08T04:38:57.513Z,272
2017-09-08T04:40:08.016Z,288
2017-09-08T04:41:17.956Z,308
2017-09-08T04:42:28.473Z,324
2017-09-08T04:43:38.734Z,340
2017-09-08T04:44:48.978Z,360
2017-09-08T04:45:59.487Z,384
2017-09-08T04:47:09.436Z,408
2017-09-08T04:48:19.055Z,424
2017-09-08T04:49:29.304Z,432
2017-09-08T04:50:39.239Z,440
2017-09-08T04:51:49.738Z,440
2017-09-08T04:52:59.685Z,412
2017-09-08T04:54:09.965Z,392
2017-09-08T04:55:19.584Z,400
2017-09-08T04:56:29.533Z,428
2017-09-08T04:57:40.031Z,464
2017-09-08T04:58:49.974Z,504
2017-09-08T04:59:59.903Z,544
2017-09-08T05:01:10.163Z,580
2017-09-08T05:02:20.425Z,624
2017-09-08T05:03:30.601Z,660
2017-09-08T05:04:40.857Z,700
2017-09-08T05:05:50.481Z,744
2017-09-08T05:07:00.417Z,812
2017-09-08T05:08:09.718Z,912
2017-09-08T05:09:20.218Z,1060
2017-09-08T05:10:29.838Z,1212
2017-09-08T05:11:40.080Z,1320
2017-09-08T05:12:50.340Z,1392
2017-09-08T05:14:00.281Z,1460
2017-09-08T05:15:10.787Z,1520
2017-09-08T05:16:21.038Z,1576
2017-09-08T05:17:31.298Z,1652
2017-09-08T05:18:40.923Z,1704
2017-09-08T05:19:50.553Z,1700
2017-09-08T05:21:01.050Z,1688
2017-09-08T05:22:11.295Z,1652
2017-09-08T05:23:21.545Z,1584
2017-09-08T05:24:31.792Z,1488
2017-09-08T05:25:42.051Z,1392
2017-09-08T05:26:52.576Z,1308
2017-09-08T05:28:02.824Z,1292
2017-09-08T05:29:12.763Z,1300
2017-09-08T05:30:23.014Z,1416
2017-09-08T05:31:32.947Z,1592
2017-09-08T05:32:43.130Z,1716
2017-09-08T05:33:53.067Z,1908
2017-09-08T05:35:03.325Z,2260
2017-09-08T05:36:13.579Z,2620
2017-09-08T05:37:23.837Z,2860
2017-09-08T05:38:34.336Z,3072
2017-09-08T05:39:44.289Z,3248
2017-09-08T05:40:54.221Z,3336
2017-09-08T05:42:03.830Z,3384
2017-09-08T05:43:14.077Z,3308
2017-09-08T05:44:23.959Z,3152
2017-09-08T05:45:34.207Z,2916
2017-09-08T05:46:44.458Z,2568
2017-09-08T05:47:54.388Z,2308
2017-09-08T05:49:04.348Z,2220
2017-09-08T05:50:14.859Z,2276
2017-09-08T05:51:24.490Z,2404
2017-09-08T05:52:34.783Z,2480
2017-09-08T05:53:44.774Z,2600
2017-09-08T05:54:55.027Z,2608
2017-09-08T05:56:05.210Z,2536
2017-09-08T05:57:15.459Z,2452
2017-09-08T05:58:25.718Z,2568
2017-09-08T05:59:36.017Z,2804
2017-09-08T06:00:46.260Z,3196
2017-09-08T06:01:56.773Z,3632
2017-09-08T06:03:07.046Z,4136
2017-09-08T06:04:17.005Z,4724
2017-09-08T06:05:27.276Z,5188
2017-09-08T06:06:37.225Z,5712
2017-09-08T06:07:47.412Z,6392
2017-09-08T06:08:57.681Z,6908
2017-09-08T06:10:07.634Z,6900
2017-09-08T06:11:17.599Z,6364
2017-09-08T06:12:27.858Z,5688
2017-09-08T06:13:37.731Z,5136
2017-09-08T06:14:47.990Z,4536
2017-09-08T06:15:58.285Z,3984
2017-09-08T06:17:08.231Z,3772
2017-09-08T06:18:18.486Z,3916
2017-09-08T06:19:28.679Z,4340
2017-09-08T06:20:38.957Z,4924
2017-09-08T06:21:48.892Z,5500
2017-09-08T06:22:58.831Z,6024
2017-09-08T06:24:08.775Z,6436
2017-09-08T06:25:19.299Z,6632
2017-09-08T06:26:29.564Z,6660
2017-09-08T06:27:39.839Z,6820
2017-09-08T06:28:50.100Z,7284
2017-09-08T06:30:00.362Z,7872
2017-09-08T06:31:10.565Z,8464
2017-09-08T06:32:20.828Z,8904
2017-09-08T06:33:31.093Z,9148
2017-09-08T06:34:41.333Z,9204
2017-09-08T06:35:51.286Z,9192
2017-09-08T06:37:01.470Z,9292
2017-09-08T06:38:11.727Z,9372
2017-09-08T06:39:21.370Z,9388
2017-09-08T06:40:31.636Z,9460
2017-09-08T06:41:41.585Z,9620
2017-09-08T06:42:52.113Z,9644
2017-09-08T06:44:02.052Z,9380
2017-09-08T06:45:11.982Z,8708
2017-09-08T06:46:22.248Z,7828
2017-09-08T06:47:31.875Z,7176
2017-09-08T06:48:42.436Z,6700
2017-09-08T06:49:52.715Z,6356
2017-09-08T06:51:03.003Z,6308
2017-09-08T06:52:13.252Z,6600
2017-09-08T06:53:22.873Z,7056
2017-09-08T06:54:33.069Z,7452
2017-09-08T06:55:43.319Z,7556
2017-09-08T06:56:53.568Z,7564
2017-09-08T06:58:03.817Z,7816
2017-09-08T06:59:14.073Z,8320
2017-09-08T07:00:24.586Z,8560
2017-09-08T07:01:34.861Z,8636
2017-09-08T07:02:45.138Z,8932
2017-09-08T07:03:55.396Z,9364
2017-09-08T07:05:05.664Z,10168
2017-09-08T07:06:15.855Z,10972
2017-09-08T07:07:26.132Z,11320
2017-09-08T07:08:36.079Z,11296
2017-09-08T07:09:46.352Z,10904
2017-09-08T07:10:56.636Z,10516
2017-09-08T07:12:06.835Z,10420
2017-09-08T07:13:17.098Z,10240
2017-09-08T07:14:27.368Z,10248
2017-09-08T07:15:37.675Z,10872
2017-09-08T07:16:47.621Z,11976
2017-09-08T07:17:58.126Z,13056
2017-09-08T07:19:08.402Z,13896
2017-09-08T07:20:18.698Z,14896
2017-09-08T07:21:28.957Z,15932
2017-09-08T07:22:38.915Z,16288
2017-09-08T07:23:49.423Z,16304
2017-09-08T07:24:59.693Z,15988
2017-09-08T07:26:09.986Z,15852
2017-09-08T07:27:20.249Z,16960
2017-09-08T07:28:30.505Z,18368
2017-09-08T07:29:40.378Z,18816
2017-09-08T07:30:50.313Z,19328
2017-09-08T07:32:00.249Z,19488
2017-09-08T07:33:10.184Z,19648
2017-09-08T07:34:20.453Z,20288
2017-09-08T07:35:30.950Z,21152
2017-09-08T07:36:41.208Z,21728
2017-09-08T07:37:51.508Z,22112
2017-09-08T07:39:01.759Z,22336
2017-09-08T07:40:11.710Z,22592
2017-09-08T07:41:21.921Z,22880
2017-09-08T07:42:32.209Z,23072
2017-09-08T07:43:42.484Z,22848
2017-09-08T07:44:52.740Z,22400
2017-09-08T07:46:02.706Z,21824
2017-09-08T07:47:13.254Z,21408
2017-09-08T07:48:23.526Z,21280
2017-09-08T07:49:33.783Z,21312
2017-09-08T07:50:43.938Z,21440
2017-09-08T07:51:53.996Z,21664
2017-09-08T07:53:04.512Z,21920
2017-09-08T07:54:14.462Z,22208
2017-09-08T07:55:24.412Z,22464
2017-09-08T07:56:34.031Z,22720
2017-09-08T07:57:43.974Z,22592
2017-09-08T07:58:54.530Z,22080
2017-09-08T08:00:04.468Z,21440
2017-09-08T08:01:14.739Z,20672
2017-09-08T08:02:25.015Z,19840
2017-09-08T08:03:35.289Z,18912
2017-09-08T08:04:45.815Z,17984
2017-09-08T08:05:56.143Z,17632
2017-09-08T08:07:05.799Z,17440
2017-09-08T08:08:16.066Z,17376
2017-09-08T08:09:26.328Z,17536
2017-09-08T08:10:36.835Z,17888
2017-09-08T08:11:46.842Z,18272
2017-09-08T08:12:56.802Z,18272
2017-09-08T08:14:07.087Z,18144
2017-09-08T08:15:17.061Z,18080
2017-09-08T08:16:27.577Z,17952
2017-09-08T08:17:37.880Z,17248
2017-09-08T08:18:48.163Z,16680
2017-09-08T08:19:58.119Z,17376
2017-09-08T08:21:08.104Z,18016
2017-09-08T08:22:18.608Z,18016
2017-09-08T08:23:28.241Z,16844
2017-09-08T08:24:38.196Z,15160
2017-09-08T08:25:48.473Z,13672
2017-09-08T08:26:58.756Z,12416
2017-09-08T08:28:08.961Z,11680
2017-09-08T08:29:19.247Z,11428
2017-09-08T08:30:29.519Z,11400
2017-09-08T08:31:39.807Z,11508
2017-09-08T08:32:50.061Z,11816
2017-09-08T08:34:00.626Z,12400
2017-09-08T08:35:10.892Z,13332
2017-09-08T08:36:20.845Z,14380
2017-09-08T08:37:31.095Z,15432
2017-09-08T08:38:41.386Z,16544
2017-09-08T08:39:51.765Z,18048
2017-09-08T08:41:01.735Z,19296
2017-09-08T08:42:12.001Z,20032
2017-09-08T08:43:21.951Z,19872
2017-09-08T08:44:32.243Z,19072
2017-09-08T08:45:42.765Z,17824
2017-09-08T08:46:53.045Z,16676
2017-09-08T08:48:03.314Z,15916
2017-09-08T08:49:13.607Z,15188
2017-09-08T08:50:23.884Z,14708
2017-09-08T08:51:34.410Z,14536
2017-09-08T08:52:44.699Z,14600
2017-09-08T08:53:54.953Z,14492
2017-09-08T08:55:05.169Z,14240
2017-09-08T08:56:15.440Z,13732
2017-09-08T08:57:25.977Z,13368
2017-09-08T08:58:36.250Z,13204
2017-09-08T08:59:46.528Z,13536
2017-09-08T09:00:56.791Z,14384
2017-09-08T09:02:07.060Z,15536
2017-09-08T09:03:17.256Z,16440
2017-09-08T09:04:27.539Z,16716
2017-09-08T09:05:37.786Z,16852
2017-09-08T09:06:48.047Z,16828
2017-09-08T09:07:58.306Z,16772
2017-09-08T09:09:08.867Z,16484
2017-09-08T09:10:18.523Z,16080
2017-09-08T09:11:28.801Z,15680
2017-09-08T09:12:38.753Z,15456
2017-09-08T09:13:49.023Z,15260
2017-09-08T09:14:59.530Z,14992
2017-09-08T09:16:09.464Z,14852
2017-09-08T09:17:19.762Z,14768
2017-09-08T09:18:29.102Z,14720
2017-09-08T09:19:39.365Z,14664
2017-09-08T09:20:49.869Z,14568
2017-09-08T09:21:59.821Z,14432
2017-09-08T09:23:09.448Z,14344
2017-09-08T09:24:19.699Z,14484
2017-09-08T09:25:29.653Z,14924
2017-09-08T09:26:40.218Z,15580
2017-09-08T09:27:50.475Z,16228
2017-09-08T09:29:00.420Z,16752
2017-09-08T09:30:10.694Z,17440
2017-09-08T09:31:20.649Z,17952
2017-09-08T09:32:31.170Z,18400
2017-09-08T09:33:41.106Z,18560
2017-09-08T09:34:51.064Z,18272
2017-09-08T09:36:01.361Z,17760
2017-09-08T09:37:11.613Z,17376
2017-09-08T09:38:22.154Z,17036
2017-09-08T09:39:32.399Z,16960
2017-09-08T09:40:42.379Z,17408
2017-09-08T09:41:52.639Z,17888
2017-09-08T09:43:02.893Z,18144
2017-09-08T09:44:13.131Z,18080
2017-09-08T09:45:23.389Z,17696
2017-09-08T09:46:33.683Z,17408
2017-09-08T09:47:43.959Z,17040
2017-09-08T09:48:53.887Z,16928
2017-09-08T09:50:04.078Z,17040
2017-09-08T09:51:14.333Z,17696
2017-09-08T09:52:24.594Z,18080
2017-09-08T09:53:34.889Z,18336
2017-09-08T09:54:45.201Z,18816
2017-09-08T09:55:55.725Z,19456
2017-09-08T09:57:05.981Z,19872
2017-09-08T09:58:16.250Z,20160
2017-09-08T09:59:26.201Z,20000
2017-09-08T10:00:36.472Z,19232
2017-09-08T10:01:46.403Z,18400
2017-09-08T10:02:56.028Z,17824
2017-09-08T10:04:06.311Z,17344
2017-09-08T10:05:16.567Z,16744
2017-09-08T10:06:26.850Z,16436
2017-09-08T10:07:37.391Z,15948
2017-09-08T10:08:47.638Z,15704
2017-09-08T10:09:57.632Z,15844
2017-09-08T10:11:07.625Z,15784
2017-09-08T10:12:17.895Z,15764
2017-09-08T10:13:28.419Z,16116
2017-09-08T10:14:38.701Z,16620
2017-09-08T10:15:48.964Z,17084
2017-09-08T10:16:59.216Z,18112
2017-09-08T10:18:09.177Z,19232
2017-09-08T10:19:19.730Z,20256
2017-09-08T10:20:30.011Z,20640
2017-09-08T10:21:40.267Z,20704
2017-09-08T10:22:50.230Z,20960
2017-09-08T10:24:00.513Z,21696
2017-09-08T10:25:10.425Z,22720
2017-09-08T10:26:20.705Z,23392
2017-09-08T10:27:30.983Z,22848
2017-09-08T10:28:41.282Z,21920
2017-09-08T10:29:50.922Z,21472
2017-09-08T10:31:01.125Z,21376
2017-09-08T10:32:11.390Z,20928
2017-09-08T10:33:21.659Z,20352
2017-09-08T10:34:31.603Z,19328
2017-09-08T10:35:41.575Z,18080
2017-09-08T10:36:52.078Z,17376
2017-09-08T10:38:02.035Z,17008
2017-09-08T10:39:12.287Z,17664
2017-09-08T10:40:22.231Z,18528
2017-09-08T10:41:32.464Z,19712
2017-09-08T10:42:42.993Z,20704
2017-09-08T10:43:53.271Z,20704
2017-09-08T10:45:03.534Z,19936
2017-09-08T10:46:13.826Z,19232
2017-09-08T10:47:23.785Z,19552
2017-09-08T10:48:34.331Z,20448
2017-09-08T10:49:44.634Z,21024
2017-09-08T10:50:54.597Z,20960
2017-09-08T10:52:04.999Z,20768
2017-09-08T10:53:14.350Z,21120
2017-09-08T10:54:24.556Z,22080
2017-09-08T10:55:34.812Z,23552
2017-09-08T10:56:45.085Z,24928
2017-09-08T10:57:55.353Z,25888
2017-09-08T10:59:05.304Z,26848
2017-09-08T11:00:15.385Z,27648
2017-09-08T11:01:25.016Z,28000
2017-09-08T11:02:35.279Z,27872
2017-09-08T11:03:45.583Z,27264
2017-09-08T11:04:55.850Z,26848
2017-09-08T11:06:06.416Z,26272
2017-09-08T11:07:16.402Z,25824
2017-09-08T11:08:26.659Z,25344
2017-09-08T11:09:36.983Z,24544
2017-09-08T11:10:46.657Z,23616
2017-09-08T11:11:57.170Z,22144
2017-09-08T11:13:07.434Z,21408
2017-09-08T11:14:17.686Z,21440
2017-09-08T11:15:27.652Z,22048
2017-09-08T11:16:37.916Z,22624
2017-09-08T11:17:48.456Z,22944
2017-09-08T11:18:58.719Z,23008
2017-09-08T11:20:08.993Z,22784
2017-09-08T11:21:19.295Z,22752
2017-09-08T11:22:29.562Z,23200
2017-09-08T11:23:40.103Z,24160
2017-09-08T11:24:50.374Z,24640
2017-09-08T11:26:00.632Z,24640
2017-09-08T11:27:10.905Z,24480
2017-09-08T11:28:21.207Z,24128
2017-09-08T11:29:31.740Z,24128
2017-09-08T11:30:42.025Z,24416
2017-09-08T11:31:52.327Z,24704
2017-09-08T11:33:02.608Z,25120
2017-09-08T11:34:12.866Z,25312
2017-09-08T11:35:23.413Z,25728
2017-09-08T11:36:33.693Z,25728
2017-09-08T11:37:43.644Z,25408
2017-09-08T11:38:53.935Z,25376
2017-09-08T11:40:03.892Z,25312
2017-09-08T11:41:14.409Z,24736
2017-09-08T11:42:24.679Z,23968
2017-09-08T11:43:34.630Z,23712
2017-09-08T11:44:44.890Z,24096
2017-09-08T11:45:55.154Z,24032
2017-09-08T11:47:05.665Z,23456
2017-09-08T11:48:15.919Z,22944
2017-09-08T11:49:26.195Z,22752
2017-09-08T11:50:36.464Z,22432
2017-09-08T11:51:46.102Z,21888
2017-09-08T11:52:56.650Z,21472
2017-09-08T11:54:06.921Z,21216
2017-09-08T11:55:17.208Z,20736
2017-09-08T11:56:27.469Z,20288
2017-09-08T11:57:37.106Z,20160
2017-09-08T11:58:47.615Z,20448
2017-09-08T11:59:57.914Z,20288
2017-09-08T12:01:08.175Z,20224
2017-09-08T12:02:18.437Z,19904
2017-09-08T12:03:28.441Z,19264
2017-09-08T12:04:38.964Z,18816
2017-09-08T12:05:49.268Z,18560
2017-09-08T12:06:59.243Z,18464
2017-09-08T12:08:09.196Z,18336
2017-09-08T12:09:19.490Z,18336
2017-09-08T12:10:30.030Z,18432
2017-09-08T12:11:40.321Z,18624
2017-09-08T12:12:50.618Z,18496
2017-09-08T12:14:00.900Z,17952
2017-09-08T12:15:10.865Z,17280
2017-09-08T12:16:20.838Z,16364
2017-09-08T12:17:30.791Z,15788
2017-09-08T12:18:41.284Z,15212
2017-09-08T12:19:51.254Z,14712
2017-09-08T12:21:01.511Z,14436
2017-09-08T12:22:12.029Z,14344
2017-09-08T12:23:22.060Z,14300
2017-09-08T12:24:32.042Z,14256
2017-09-08T12:25:42.324Z,14216
2017-09-08T12:26:52.593Z,14192
2017-09-08T12:28:03.110Z,14068
2017-09-08T12:29:13.064Z,13780
2017-09-08T12:30:23.014Z,13496
2017-09-08T12:31:33.279Z,13376
2017-09-08T12:32:43.244Z,13380
2017-09-08T12:33:53.751Z,13440
2017-09-08T12:35:04.016Z,13528
2017-09-08T12:36:13.970Z,13684
2017-09-08T12:37:24.248Z,13828
2017-09-08T12:38:34.194Z,13996
2017-09-08T12:39:44.708Z,14196
2017-09-08T12:40:54.986Z,14404
2017-09-08T12:42:05.254Z,14648
2017-09-08T12:43:15.516Z,14752
2017-09-08T12:44:25.468Z,14792
2017-09-08T12:45:35.361Z,14928
2017-09-08T12:46:45.645Z,15068
2017-09-08T12:47:55.939Z,15224
2017-09-08T12:49:06.214Z,15312
2017-09-08T12:50:16.465Z,15384
2017-09-08T12:51:27.024Z,15788
2017-09-08T12:52:37.291Z,16568
2017-09-08T12:53:47.554Z,17856
2017-09-08T12:54:57.837Z,19296
2017-09-08T12:56:07.808Z,20992
2017-09-08T12:57:18.021Z,22400
2017-09-08T12:58:27.330Z,23232
2017-09-08T12:59:37.309Z,23296
2017-09-08T13:00:47.250Z,22752
2017-09-08T13:01:57.507Z,21376
2017-09-08T13:03:07.708Z,19584
2017-09-08T13:04:17.978Z,18240
2017-09-08T13:05:28.232Z,17408
2017-09-08T13:06:38.494Z,16908
2017-09-08T13:07:48.455Z,16920
2017-09-08T13:08:58.334Z,16608
2017-09-08T13:10:08.599Z,15936
2017-09-08T13:11:18.540Z,15252
2017-09-08T13:12:28.805Z,14832
2017-09-08T13:13:39.072Z,14672
2017-09-08T13:14:49.633Z,14428
2017-09-08T13:15:59.897Z,14080
2017-09-08T13:17:09.534Z,13452
2017-09-08T13:18:19.494Z,12940
2017-09-08T13:19:29.429Z,12372
2017-09-08T13:20:39.938Z,11632
2017-09-08T13:21:49.517Z,10908
2017-09-08T13:22:59.468Z,10168
2017-09-08T13:24:09.086Z,9672
2017-09-08T13:25:19.091Z,9680
2017-09-08T13:26:29.288Z,10184
2017-09-08T13:27:39.556Z,10796
2017-09-08T13:28:49.499Z,11136
2017-09-08T13:29:59.451Z,11256
2017-09-08T13:31:09.721Z,11512
2017-09-08T13:32:20.240Z,11608
2017-09-08T13:33:30.171Z,11696
2017-09-08T13:34:40.423Z,11924
2017-09-08T13:35:50.369Z,12116
2017-09-08T13:37:00.029Z,12152
2017-09-08T13:38:09.900Z,12072
2017-09-08T13:39:20.184Z,12076
2017-09-08T13:40:30.136Z,12228
2017-09-08T13:41:40.382Z,12344
2017-09-08T13:42:50.663Z,12416
2017-09-08T13:44:01.176Z,12548
2017-09-08T13:45:11.428Z,12116
2017-09-08T13:46:21.697Z,11808
2017-09-08T13:47:31.633Z,11928
2017-09-08T13:48:41.894Z,12344
2017-09-08T13:49:51.755Z,12516
2017-09-08T13:51:02.103Z,12280
2017-09-08T13:52:12.040Z,12112
2017-09-08T13:53:21.969Z,12060
2017-09-08T13:54:31.894Z,12120
2017-09-08T13:55:42.098Z,12096
2017-09-08T13:56:52.367Z,12300
2017-09-08T13:58:02.307Z,12288
2017-09-08T13:59:12.601Z,12684
2017-09-08T14:00:22.856Z,12284
2017-09-08T14:01:33.051Z,11600
2017-09-08T14:02:43.315Z,10712
2017-09-08T14:03:53.241Z,10324
2017-09-08T14:05:03.190Z,10584
2017-09-08T14:06:13.466Z,11176
2017-09-08T14:07:23.665Z,11156
2017-09-08T14:08:33.934Z,10700
2017-09-08T14:09:44.198Z,10192
2017-09-08T14:10:54.448Z,10004
2017-09-08T14:12:04.729Z,9764
2017-09-08T14:13:15.250Z,9496
2017-09-08T14:14:25.485Z,9248
2017-09-08T14:15:35.736Z,8988
2017-09-08T14:16:45.694Z,8884
2017-09-08T14:17:55.958Z,9480
2017-09-08T14:19:06.460Z,10300
2017-09-08T14:20:16.717Z,11056
2017-09-08T14:21:26.980Z,12208
2017-09-08T14:22:36.928Z,12892
2017-09-08T14:23:47.200Z,13368
2017-09-08T14:24:57.711Z,13384
2017-09-08T14:26:07.962Z,12716
2017-09-08T14:27:17.904Z,11836
2017-09-08T14:28:28.182Z,11932
2017-09-08T14:29:38.449Z,12352
2017-09-08T14:30:48.963Z,12656
2017-09-08T14:31:59.229Z,12864
2017-09-08T14:33:09.178Z,12812
2017-09-08T14:34:19.115Z,12608
2017-09-08T14:35:29.375Z,13304
2017-09-08T14:36:39.882Z,14824
2017-09-08T14:37:49.499Z,16440
2017-09-08T14:38:59.759Z,17536
2017-09-08T14:40:10.028Z,17248
2017-09-08T14:41:20.284Z,15876
2017-09-08T14:42:30.794Z,14596
2017-09-08T14:43:41.048Z,13312
2017-09-08T14:44:50.994Z,11636
2017-09-08T14:46:01.246Z,10104
2017-09-08T14:47:11.499Z,9512
2017-09-08T14:48:21.378Z,9596
2017-09-08T14:49:31.635Z,9660
2017-09-08T14:50:41.894Z,9872
2017-09-08T14:51:51.851Z,10392
2017-09-08T14:53:01.804Z,11156
2017-09-08T14:54:12.393Z,11832
2017-09-08T14:55:22.662Z,12616
2017-09-08T14:56:32.923Z,13052
2017-09-08T14:57:43.191Z,12896
2017-09-08T14:58:52.817Z,12028
2017-09-08T15:00:03.013Z,10892
2017-09-08T15:01:12.949Z,10308
2017-09-08T15:02:22.887Z,10436
2017-09-08T15:03:33.155Z,10820
2017-09-08T15:04:43.093Z,11208
2017-09-08T15:05:53.614Z,11612
2017-09-08T15:07:03.878Z,11940
2017-09-08T15:08:14.121Z,12436
2017-09-08T15:09:23.764Z,13420
2017-09-08T15:10:34.020Z,14360
2017-09-08T15:11:44.524Z,14528
2017-09-08T15:12:54.773Z,13548
2017-09-08T15:14:05.041Z,12512
2017-09-08T15:15:15.304Z,12232
2017-09-08T15:16:25.557Z,12612
2017-09-08T15:17:36.063Z,13580
2017-09-08T15:18:46.011Z,14328
2017-09-08T15:19:55.968Z,14564
2017-09-08T15:21:06.237Z,14652
2017-09-08T15:22:16.487Z,14132
2017-09-08T15:23:27.007Z,13004
2017-09-08T15:24:36.954Z,11896
2017-09-08T15:25:46.896Z,11188
2017-09-08T15:26:57.159Z,10844
2017-09-08T15:28:07.412Z,10804
2017-09-08T15:29:17.928Z,10736
2017-09-08T15:30:28.194Z,10348
2017-09-08T15:31:38.174Z,9648
2017-09-08T15:32:48.424Z,8892
2017-09-08T15:33:58.679Z,8192
2017-09-08T15:35:08.894Z,7620
2017-09-08T15:36:19.147Z,7164
2017-09-08T15:37:28.768Z,6932
2017-09-08T15:38:39.055Z,6856
2017-09-08T15:39:49.002Z,6680
2017-09-08T15:40:59.233Z,6376
2017-09-08T15:42:09.177Z,5868
2017-09-08T15:43:19.116Z,5220
2017-09-08T15:44:29.424Z,4744